createdAt,value
2022-08-02T00:00:43.124Z,2.53
2022-08-02T00:03:11.279Z,2.83
2022-08-02T00:05:40.328Z,2.42
2022-08-02T00:08:08.656Z,5.72
2022-08-02T00:10:36.784Z,2.63
2022-08-02T00:13:05.084Z,4.40
2022-08-02T00:15:33.202Z,4.18
2022-08-02T00:18:02.691Z,2.47
2022-08-02T00:20:30.886Z,3.90
2022-08-02T00:22:58.977Z,3.97
2022-08-02T00:25:27.196Z,2.67
2022-08-02T00:27:55.437Z,4.07
2022-08-02T00:30:23.625Z,1.85
2022-08-02T00:32:51.802Z,2.30
2022-08-02T00:35:21.546Z,3.53
2022-08-02T00:37:50.604Z,2.90
2022-08-02T00:40:23.356Z,2.33
2022-08-02T00:43:04.342Z,2.40
2022-08-02T00:46:02.570Z,3.35
2022-08-02T00:48:20.771Z,8.57
2022-08-02T00:50:50.228Z,2.30
2022-08-02T00:53:18.406Z,2.63
2022-08-02T00:55:46.714Z,2.95
2022-08-02T00:58:14.788Z,3.25
2022-08-02T01:00:42.961Z,2.97
2022-08-02T01:03:11.054Z,2.60
2022-08-02T01:06:02.186Z,3.45
2022-08-02T01:08:29.400Z,2.47
2022-08-02T01:11:00.208Z,2.85
2022-08-02T01:13:29.307Z,3.83
2022-08-02T01:16:05.298Z,2.70
2022-08-02T01:18:39.629Z,3.33
2022-08-02T01:21:22.746Z,3.35
2022-08-02T01:24:04.533Z,2.30
2022-08-02T01:26:46.371Z,3.25
2022-08-02T01:29:20.169Z,5.35
2022-08-02T01:31:54.123Z,3.73
2022-08-02T01:34:31.640Z,2.80
2022-08-02T01:37:04.553Z,2.70
2022-08-02T01:39:36.043Z,3.70
2022-08-02T01:42:05.449Z,3.60
2022-08-02T01:44:38.993Z,6.05
2022-08-02T01:47:10.993Z,4.00
2022-08-02T01:49:42.109Z,3.97
2022-08-02T01:52:25.435Z,4.53
2022-08-02T01:54:58.853Z,5.30
2022-08-02T01:57:30.450Z,5.20
2022-08-02T02:00:02.470Z,5.72
2022-08-02T02:02:33.502Z,8.77
2022-08-02T02:05:04.298Z,5.03
2022-08-02T02:07:35.248Z,5.18
2022-08-02T02:10:05.285Z,5.85
2022-08-02T02:12:36.011Z,4.45
2022-08-02T02:15:07.640Z,5.43
2022-08-02T02:17:53.078Z,8.15
2022-08-02T02:20:25.616Z,8.43
2022-08-02T02:22:53.964Z,5.45
2022-08-02T02:25:28.199Z,5.97
2022-08-02T02:28:08.030Z,5.80
2022-08-02T02:30:41.179Z,6.10
2022-08-02T02:33:10.797Z,6.38
2022-08-02T02:35:40.811Z,8.23
2022-08-02T02:38:14.516Z,4.78
2022-08-02T02:40:44.455Z,6.43
2022-08-02T02:43:14.320Z,9.88
2022-08-02T02:45:46.006Z,6.35
2022-08-02T02:48:16.130Z,6.55
2022-08-02T02:50:45.649Z,7.82
2022-08-02T02:53:17.814Z,6.22
2022-08-02T02:56:01.619Z,7.15
2022-08-02T02:58:31.189Z,6.50
2022-08-02T03:01:19.214Z,6.65
2022-08-02T03:03:47.798Z,6.07
2022-08-02T03:06:16.407Z,6.18
2022-08-02T03:08:44.862Z,5.45
2022-08-02T03:11:15.735Z,8.13
2022-08-02T03:13:44.014Z,6.32
2022-08-02T03:16:14.358Z,7.07
2022-08-02T03:18:43.786Z,6.47
2022-08-02T03:21:13.786Z,5.95
2022-08-02T03:23:43.178Z,8.35
2022-08-02T03:26:11.668Z,7.15
2022-08-02T03:28:39.820Z,11.52
2022-08-02T03:31:08.208Z,7.38
2022-08-02T03:33:38.391Z,7.28
2022-08-02T03:36:11.273Z,8.20
2022-08-02T03:38:40.300Z,9.27
2022-08-02T03:41:09.958Z,8.45
2022-08-02T03:43:40.163Z,9.63
2022-08-02T03:46:10.122Z,8.82
2022-08-02T03:48:40.022Z,6.22
2022-08-02T03:51:12.055Z,10.80
2022-08-02T03:53:41.580Z,11.68
2022-08-02T03:56:11.523Z,6.88
2022-08-02T03:58:39.710Z,7.97
2022-08-02T04:01:07.879Z,10.55
2022-08-02T04:03:36.127Z,21.33
2022-08-02T04:06:05.733Z,17.13
2022-08-02T04:08:38.039Z,8.43
2022-08-02T04:11:25.078Z,8.15
2022-08-02T04:13:56.777Z,6.78
2022-08-02T04:16:32.666Z,7.68
2022-08-02T04:19:03.970Z,8.32
2022-08-02T04:21:51.557Z,8.75
2022-08-02T04:24:25.063Z,9.63
2022-08-02T04:26:57.779Z,7.30
2022-08-02T04:29:33.011Z,8.13
2022-08-02T04:32:02.051Z,7.15
2022-08-02T04:34:30.989Z,9.15
2022-08-02T04:37:00.899Z,9.23
2022-08-02T04:39:38.413Z,15.65
2022-08-02T04:42:07.417Z,8.32
2022-08-02T04:44:35.961Z,7.38
2022-08-02T04:47:06.918Z,17.98
2022-08-02T04:49:35.377Z,5.28
2022-08-02T04:52:05.591Z,10.23
2022-08-02T04:54:33.783Z,8.90
2022-08-02T04:57:01.879Z,6.90
2022-08-02T04:59:29.984Z,9.68
2022-08-02T05:01:58.266Z,5.85
2022-08-02T05:04:26.318Z,11.30
2022-08-02T05:06:54.495Z,7.28
2022-08-02T05:09:24.862Z,6.75
2022-08-02T05:11:54.841Z,7.47
2022-08-02T05:14:23.381Z,3.33
2022-08-02T05:16:51.463Z,6.50
2022-08-02T05:19:19.561Z,4.28
2022-08-02T05:21:47.679Z,6.10
2022-08-02T05:24:15.750Z,6.88
2022-08-02T05:26:45.256Z,6.38
2022-08-02T05:29:13.310Z,8.55
2022-08-02T05:31:41.503Z,5.28
2022-08-02T05:34:11.971Z,7.38
2022-08-02T05:36:42.095Z,19.15
2022-08-02T05:39:10.806Z,13.48
2022-08-02T05:41:40.563Z,4.22
2022-08-02T05:44:10.002Z,5.90
2022-08-02T05:46:38.383Z,3.40
2022-08-02T05:49:06.605Z,5.80
2022-08-02T05:51:39.046Z,3.88
2022-08-02T05:54:17.504Z,9.52
2022-08-02T05:56:51.579Z,5.72
2022-08-02T05:59:28.942Z,5.05
2022-08-02T06:01:59.309Z,2.63
2022-08-02T06:04:33.836Z,3.80
2022-08-02T06:07:06.202Z,3.63
2022-08-02T06:09:34.698Z,2.63
2022-08-02T06:12:04.399Z,4.90
2022-08-02T06:14:34.782Z,3.33
2022-08-02T06:17:05.920Z,3.00
2022-08-02T06:19:46.880Z,2.47
2022-08-02T06:22:35.577Z,2.05
2022-08-02T06:25:06.504Z,2.33
2022-08-02T06:27:41.423Z,4.60
2022-08-02T06:30:11.983Z,1.70
2022-08-02T06:32:40.926Z,4.75
2022-08-02T06:35:09.943Z,2.60
2022-08-02T06:37:47.381Z,2.63
2022-08-02T06:40:26.156Z,5.32
2022-08-02T06:43:07.025Z,2.58
2022-08-02T06:45:36.617Z,1.15
2022-08-02T06:48:05.142Z,1.60
2022-08-02T06:50:34.636Z,1.75
2022-08-02T06:53:02.856Z,1.20
2022-08-02T06:55:32.301Z,2.35
2022-08-02T06:58:11.675Z,1.75
2022-08-02T07:00:41.610Z,6.88
2022-08-02T07:03:10.105Z,1.30
2022-08-02T07:05:38.288Z,3.00
2022-08-02T07:08:06.712Z,3.72
2022-08-02T07:10:34.996Z,2.35
2022-08-02T07:13:03.450Z,2.80
2022-08-02T07:15:31.670Z,1.92
2022-08-02T07:18:01.173Z,4.72
2022-08-02T07:20:29.653Z,2.47
2022-08-02T07:22:57.790Z,1.48
2022-08-02T07:25:26.119Z,2.25
2022-08-02T07:27:57.182Z,3.65
2022-08-02T07:30:25.357Z,1.90
2022-08-02T07:32:53.619Z,2.42
2022-08-02T07:35:23.386Z,4.90
2022-08-02T07:38:01.822Z,3.40
2022-08-02T07:40:30.535Z,4.13
2022-08-02T07:43:03.815Z,2.63
2022-08-02T07:45:33.216Z,2.03
2022-08-02T07:48:04.394Z,3.25
2022-08-02T07:50:33.968Z,3.25
2022-08-02T07:53:02.572Z,2.22
2022-08-02T07:55:35.222Z,4.20
2022-08-02T07:58:12.242Z,2.03
2022-08-02T08:00:45.867Z,2.97
2022-08-02T08:03:14.363Z,5.30
2022-08-02T08:05:43.950Z,2.78
2022-08-02T08:08:16.926Z,1.30
2022-08-02T08:10:45.886Z,2.10
2022-08-02T08:13:14.128Z,2.80
2022-08-02T08:15:42.303Z,2.05
2022-08-02T08:18:20.476Z,2.78
2022-08-02T08:20:50.132Z,2.20
2022-08-02T08:23:18.429Z,1.40
2022-08-02T08:25:46.659Z,1.98
2022-08-02T08:28:14.758Z,3.30
2022-08-02T08:30:43.007Z,1.63
2022-08-02T08:33:11.162Z,5.85
2022-08-02T08:35:39.246Z,1.17
2022-08-02T08:38:09.282Z,5.22
2022-08-02T08:40:37.652Z,3.28
2022-08-02T08:43:06.260Z,1.70
2022-08-02T08:45:34.724Z,0.68
2022-08-02T08:48:09.529Z,3.88
2022-08-02T08:50:43.097Z,1.50
2022-08-02T08:53:14.890Z,0.73
2022-08-02T08:55:44.838Z,0.57
2022-08-02T08:58:14.083Z,2.33
2022-08-02T09:00:42.718Z,0.82
2022-08-02T09:03:11.276Z,1.73
2022-08-02T09:05:41.780Z,2.90
2022-08-02T09:08:14.824Z,0.77
2022-08-02T09:10:47.888Z,2.05
2022-08-02T09:13:38.811Z,1.60
2022-08-02T09:16:12.870Z,0.95
2022-08-02T09:18:45.191Z,3.25
2022-08-02T09:21:15.672Z,1.98
2022-08-02T09:23:45.885Z,1.15
2022-08-02T09:26:17.119Z,1.10
2022-08-02T09:28:47.529Z,3.28
2022-08-02T09:31:18.192Z,3.78
2022-08-02T09:33:51.577Z,2.78
2022-08-02T09:36:19.922Z,0.50
2022-08-02T09:38:55.925Z,3.58
2022-08-02T09:41:27.108Z,3.20
2022-08-02T09:44:04.879Z,2.70
2022-08-02T09:46:37.862Z,1.17
2022-08-02T09:49:09.406Z,1.02
2022-08-02T09:51:41.390Z,2.70
2022-08-02T09:54:11.943Z,3.30
2022-08-02T09:56:47.956Z,6.15
2022-08-02T09:59:18.066Z,3.30
2022-08-02T10:01:51.440Z,3.45
2022-08-02T10:04:30.005Z,1.20
2022-08-02T10:06:59.617Z,1.25
2022-08-02T10:09:29.314Z,1.83
2022-08-02T10:12:01.357Z,2.08
2022-08-02T10:14:29.519Z,1.08
2022-08-02T10:16:58.967Z,4.68
2022-08-02T10:20:01.706Z,1.42
2022-08-02T10:22:19.790Z,2.05
2022-08-02T10:24:49.109Z,3.53
2022-08-02T10:27:20.973Z,2.53
2022-08-02T10:29:54.360Z,3.03
2022-08-02T10:32:28.166Z,0.40
2022-08-02T10:35:18.645Z,2.50
2022-08-02T10:37:51.285Z,0.88
2022-08-02T10:40:26.712Z,2.05
2022-08-02T10:43:00.634Z,2.17
2022-08-02T10:45:29.914Z,2.38
2022-08-02T10:48:00.237Z,5.05
2022-08-02T10:50:53.884Z,0.90
2022-08-02T10:53:29.862Z,1.70
2022-08-02T10:56:01.770Z,2.95
2022-08-02T10:58:35.621Z,1.55
2022-08-02T11:01:06.361Z,1.95
2022-08-02T11:03:42.464Z,2.78
2022-08-02T11:06:25.533Z,3.33
2022-08-02T11:09:33.707Z,1.83
2022-08-02T11:12:05.169Z,1.20
2022-08-02T11:14:37.255Z,1.90
2022-08-02T11:17:24.940Z,2.88
2022-08-02T11:20:17.526Z,1.40
2022-08-02T11:22:47.278Z,1.15
2022-08-02T11:26:02.619Z,0.73
2022-08-02T11:28:26.033Z,0.57
2022-08-02T11:31:03.065Z,0.63
2022-08-02T11:33:36.735Z,2.00
2022-08-02T11:36:08.079Z,1.83
2022-08-02T11:38:36.289Z,1.08
2022-08-02T11:41:09.507Z,1.25
2022-08-02T11:43:39.776Z,1.92
2022-08-02T11:46:16.394Z,2.67
2022-08-02T11:48:45.300Z,1.40
2022-08-02T11:51:15.193Z,1.10
2022-08-02T11:53:50.974Z,0.57
2022-08-02T11:56:31.047Z,2.40
2022-08-02T11:59:03.331Z,1.73
2022-08-02T12:01:41.970Z,1.90
2022-08-02T12:04:18.455Z,2.53
2022-08-02T12:06:58.924Z,2.55
2022-08-02T12:09:28.199Z,2.78
2022-08-02T12:11:57.767Z,0.65
2022-08-02T12:14:28.337Z,1.23
2022-08-02T12:17:15.846Z,2.88
2022-08-02T12:19:44.859Z,0.80
2022-08-02T12:22:18.640Z,0.95
2022-08-02T12:24:50.046Z,2.30
2022-08-02T12:27:32.652Z,0.85
2022-08-02T12:30:03.431Z,0.50
2022-08-02T12:32:33.274Z,0.98
2022-08-02T12:35:26.254Z,1.83
2022-08-02T12:37:56.310Z,4.80
2022-08-02T12:40:26.546Z,0.70
2022-08-02T12:42:58.623Z,0.82
2022-08-02T12:45:38.325Z,1.45
2022-08-02T12:48:11.052Z,1.20
2022-08-02T12:50:40.125Z,0.98
2022-08-02T12:53:10.173Z,1.15
2022-08-02T12:55:59.911Z,1.35
2022-08-02T12:58:31.157Z,1.27
2022-08-02T13:01:01.941Z,0.95
2022-08-02T13:04:11.855Z,0.40
2022-08-02T13:06:40.871Z,0.30
2022-08-02T13:09:18.834Z,0.60
2022-08-02T13:11:47.703Z,0.50
2022-08-02T13:14:16.755Z,2.97
2022-08-02T13:16:46.734Z,1.70
2022-08-02T13:19:16.479Z,0.80
2022-08-02T13:22:02.312Z,1.05
2022-08-02T13:24:38.084Z,1.63
2022-08-02T13:27:08.745Z,2.15
2022-08-02T13:29:37.298Z,1.52
2022-08-02T13:32:05.798Z,0.73
2022-08-02T13:34:35.308Z,0.90
2022-08-02T13:37:04.088Z,0.68
2022-08-02T13:39:32.349Z,1.20
2022-08-02T13:42:00.469Z,2.17
2022-08-02T13:44:28.655Z,1.63
2022-08-02T13:46:56.932Z,0.90
2022-08-02T13:49:51.390Z,0.77
2022-08-02T13:52:15.505Z,0.68
2022-08-02T13:54:44.047Z,1.50
2022-08-02T13:57:12.260Z,1.85
2022-08-02T13:59:56.279Z,1.08
2022-08-02T14:02:28.308Z,0.60
2022-08-02T14:04:57.109Z,1.05
2022-08-02T14:07:26.642Z,1.08
2022-08-02T14:09:54.775Z,1.77
2022-08-02T14:12:25.243Z,0.57
2022-08-02T14:14:53.445Z,1.15
2022-08-02T14:17:21.595Z,0.88
2022-08-02T14:19:50.847Z,2.75
2022-08-02T14:22:19.163Z,1.77
2022-08-02T14:24:48.641Z,1.55
2022-08-02T14:27:16.909Z,2.15
2022-08-02T14:29:45.207Z,1.40
2022-08-02T14:32:13.485Z,0.25
2022-08-02T14:34:41.930Z,3.47
2022-08-02T14:37:10.042Z,2.28
2022-08-02T14:39:43.400Z,1.35
2022-08-02T14:42:27.782Z,0.60
2022-08-02T14:44:55.953Z,3.95
2022-08-02T14:47:24.145Z,2.58
2022-08-02T14:49:52.410Z,2.60
2022-08-02T14:52:21.223Z,0.40
2022-08-02T14:54:49.364Z,0.80
2022-08-02T14:57:17.812Z,2.40
2022-08-02T14:59:47.331Z,1.60
2022-08-02T15:02:17.906Z,1.10
2022-08-02T15:04:46.166Z,4.07
2022-08-02T15:07:17.536Z,1.20
2022-08-02T15:09:45.869Z,1.63
2022-08-02T15:12:14.584Z,1.17
2022-08-02T15:14:43.483Z,3.17
2022-08-02T15:17:13.320Z,1.15
2022-08-02T15:19:57.931Z,2.20
2022-08-02T15:22:29.453Z,2.00
2022-08-02T15:24:59.565Z,0.88
2022-08-02T15:27:27.996Z,4.32
2022-08-02T15:30:00.320Z,2.55
2022-08-02T15:32:30.156Z,2.40
2022-08-02T15:34:58.437Z,0.60
2022-08-02T15:37:31.117Z,1.75
2022-08-02T15:39:59.967Z,1.42
2022-08-02T15:42:30.240Z,0.50
2022-08-02T15:45:00.357Z,2.67
2022-08-02T15:47:29.925Z,1.65
2022-08-02T15:49:58.506Z,2.05
2022-08-02T15:52:27.500Z,0.60
2022-08-02T15:54:55.933Z,3.72
2022-08-02T15:57:24.171Z,1.02
2022-08-02T15:59:53.147Z,1.05
2022-08-02T16:02:21.404Z,1.63
2022-08-02T16:04:50.943Z,2.35
2022-08-02T16:07:19.162Z,4.95
2022-08-02T16:09:47.310Z,5.82
2022-08-02T16:12:15.924Z,2.67
2022-08-02T16:14:45.551Z,1.08
2022-08-02T16:17:13.855Z,1.52
2022-08-02T16:20:03.580Z,3.47
2022-08-02T16:22:31.864Z,2.63
2022-08-02T16:25:00.481Z,2.30
2022-08-02T16:27:28.674Z,1.27
2022-08-02T16:29:59.488Z,2.58
2022-08-02T16:32:27.798Z,1.73
2022-08-02T16:35:08.694Z,6.03
2022-08-02T16:37:51.799Z,2.13
2022-08-02T16:40:21.386Z,2.22
2022-08-02T16:42:50.534Z,3.20
2022-08-02T16:45:20.868Z,1.33
2022-08-02T16:47:55.109Z,2.90
2022-08-02T16:50:28.335Z,2.05
2022-08-02T16:52:59.215Z,5.80
2022-08-02T16:55:29.096Z,1.95
2022-08-02T16:58:15.653Z,5.68
2022-08-02T17:00:46.774Z,1.58
2022-08-02T17:03:16.169Z,1.98
2022-08-02T17:05:56.143Z,3.00
2022-08-02T17:08:32.104Z,5.28
2022-08-02T17:11:03.198Z,3.15
2022-08-02T17:13:34.434Z,4.70
2022-08-02T17:16:20.234Z,6.28
2022-08-02T17:18:54.516Z,5.63
2022-08-02T17:21:23.046Z,1.90
2022-08-02T17:24:07.796Z,0.60
2022-08-02T17:26:38.739Z,1.23
2022-08-02T17:32:04.988Z,2.92
2022-08-02T17:34:35.074Z,1.20
2022-08-02T17:37:06.131Z,1.42
2022-08-02T17:39:44.455Z,3.30
2022-08-02T17:42:23.766Z,4.00
2022-08-02T17:44:54.371Z,3.35
2022-08-02T17:47:23.753Z,1.90
2022-08-02T17:49:59.717Z,4.10
2022-08-02T17:52:50.633Z,5.18
2022-08-02T17:55:18.137Z,2.17
2022-08-02T17:57:58.796Z,1.92
2022-08-02T18:00:33.961Z,1.08
2022-08-02T18:03:05.952Z,2.67
2022-08-02T18:05:41.627Z,3.03
2022-08-02T18:08:23.240Z,3.53
2022-08-02T18:10:54.340Z,12.52
2022-08-02T18:13:22.589Z,2.65
2022-08-02T18:15:57.098Z,5.30
2022-08-02T18:18:29.410Z,1.23
2022-08-02T18:20:58.850Z,2.30
2022-08-02T18:23:49.540Z,4.30
2022-08-02T18:26:28.618Z,2.20
2022-08-02T18:28:57.137Z,4.53
2022-08-02T18:31:27.035Z,2.63
2022-08-02T18:34:01.973Z,2.47
2022-08-02T18:36:31.609Z,21.42
2022-08-02T18:39:08.480Z,11.52
2022-08-02T18:41:38.434Z,5.10
2022-08-02T18:44:07.298Z,8.48
2022-08-02T18:46:35.475Z,7.43
2022-08-02T18:49:06.583Z,22.20
2022-08-02T18:51:41.887Z,33.58
2022-08-02T18:54:09.990Z,16.55
2022-08-02T18:56:40.098Z,16.35
2022-08-02T18:59:08.523Z,13.93
2022-08-02T19:01:46.871Z,10.60
2022-08-02T19:04:27.607Z,10.50
2022-08-02T19:07:03.876Z,12.23
2022-08-02T19:09:36.021Z,6.07
2022-08-02T19:12:11.447Z,3.65
2022-08-02T19:14:40.288Z,9.10
2022-08-02T19:17:54.597Z,5.50
2022-08-02T19:19:56.856Z,13.50
2022-08-02T19:22:25.402Z,4.68
2022-08-02T19:25:00.022Z,10.00
2022-08-02T19:27:32.592Z,3.90
2022-08-02T19:30:07.533Z,6.20
2022-08-02T19:32:41.645Z,5.25
2022-08-02T19:35:30.980Z,8.38
2022-08-02T19:38:08.586Z,2.33
2022-08-02T19:40:37.715Z,3.95
2022-08-02T19:44:26.076Z,2.47
2022-08-02T19:45:57.243Z,4.43
2022-08-02T19:48:31.173Z,5.07
2022-08-02T19:51:01.474Z,6.28
2022-08-02T19:53:47.910Z,2.15
2022-08-02T19:56:21.761Z,4.88
2022-08-02T19:58:57.710Z,4.93
2022-08-02T20:01:37.231Z,6.18
2022-08-02T20:04:13.134Z,3.78
2022-08-02T20:06:45.680Z,4.60
2022-08-02T20:09:16.301Z,3.95
2022-08-02T20:11:45.991Z,4.13
2022-08-02T20:14:15.454Z,7.80
2022-08-02T20:16:46.002Z,8.90
2022-08-02T20:19:14.260Z,4.85
2022-08-02T20:21:52.905Z,3.10
2022-08-02T20:24:26.518Z,4.80
2022-08-02T20:26:55.159Z,7.15
2022-08-02T20:29:44.879Z,5.57
2022-08-02T20:32:22.401Z,9.02
2022-08-02T20:38:01.242Z,5.00
2022-08-02T20:40:28.164Z,4.90
2022-08-02T20:42:58.830Z,3.15
2022-08-02T20:45:28.829Z,5.03
2022-08-02T20:50:49.167Z,4.13
2022-08-02T20:53:24.082Z,3.50
2022-08-02T20:55:55.922Z,3.42
2022-08-02T20:58:26.811Z,7.18
2022-08-02T21:00:59.753Z,3.35
2022-08-02T21:03:39.239Z,4.60
2022-08-02T21:06:08.874Z,6.18
2022-08-02T21:08:38.252Z,3.10
2022-08-02T21:11:09.445Z,5.88
2022-08-02T21:13:46.442Z,2.22
2022-08-02T21:18:55.755Z,6.88
2022-08-02T21:21:29.619Z,5.40
2022-08-02T21:23:58.775Z,4.60
2022-08-02T21:26:31.053Z,5.82
2022-08-02T21:29:03.903Z,4.72
2022-08-02T21:31:36.624Z,2.97
2022-08-02T21:34:21.546Z,1.75
2022-08-02T21:36:51.159Z,6.85
2022-08-02T21:39:20.407Z,4.80
2022-08-02T21:41:49.281Z,8.15
2022-08-02T21:44:18.467Z,5.45
2022-08-02T21:46:50.240Z,2.50
2022-08-02T21:49:20.139Z,2.05
2022-08-02T21:51:49.263Z,3.53
2022-08-02T21:54:20.991Z,3.72
2022-08-02T21:56:51.890Z,2.30
2022-08-02T21:59:26.356Z,1.88
2022-08-02T22:01:57.517Z,3.88
2022-08-02T22:04:26.490Z,5.60
2022-08-02T22:06:56.721Z,5.22
2022-08-02T22:09:44.309Z,5.80
2022-08-02T22:12:17.562Z,2.28
2022-08-02T22:14:53.917Z,2.90
2022-08-02T22:17:51.123Z,1.98
2022-08-02T22:20:15.459Z,4.43
2022-08-02T22:22:48.242Z,6.32
2022-08-02T22:25:26.878Z,3.35
2022-08-02T22:28:39.130Z,5.18
2022-08-02T22:30:55.225Z,2.45
2022-08-02T22:33:47.026Z,8.63
2022-08-02T22:36:29.493Z,3.35
2022-08-02T22:38:57.919Z,4.50
2022-08-02T22:41:26.018Z,5.22
2022-08-02T22:44:14.559Z,3.08
2022-08-02T22:46:43.119Z,3.85
2022-08-02T22:49:37.109Z,5.80
2022-08-02T22:52:00.923Z,4.13
2022-08-02T22:54:30.358Z,5.07
2022-08-02T22:57:00.171Z,3.33
2022-08-02T22:58:49.221Z,2.60
2022-08-02T22:59:05.858Z,6.72
2022-08-02T22:59:39.052Z,9.82
2022-08-02T23:02:07.672Z,5.32
2022-08-02T23:04:37.598Z,7.90
2022-08-02T23:07:06.092Z,6.05
2022-08-02T23:09:34.247Z,10.15
2022-08-02T23:12:02.357Z,5.45
2022-08-02T23:14:30.843Z,3.30
2022-08-02T23:17:16.391Z,8.55
2022-08-02T23:19:52.339Z,2.15
2022-08-02T23:22:21.745Z,3.72
2022-08-02T23:24:58.351Z,2.10
2022-08-02T23:27:26.811Z,4.18
2022-08-02T23:29:54.940Z,3.33
2022-08-02T23:32:25.676Z,5.22
2022-08-02T23:34:55.572Z,2.65
2022-08-02T23:37:24.164Z,6.10
2022-08-02T23:39:52.740Z,3.20
2022-08-02T23:42:20.827Z,5.38
2022-08-02T23:44:49.595Z,5.43
2022-08-02T23:47:17.889Z,5.55
2022-08-02T23:49:46.077Z,3.08
2022-08-02T23:52:15.806Z,3.40
2022-08-02T23:54:43.970Z,3.47
2022-08-02T23:57:20.673Z,2.53
2022-08-02T23:59:50.956Z,2.67
